createdAt,value
2023-02-08T00:00:58.121Z,152.57
2023-02-08T00:03:26.025Z,147.43
2023-02-08T00:05:53.799Z,146.57
2023-02-08T00:08:21.541Z,157.60
2023-02-08T00:10:50.098Z,135.68
2023-02-08T00:13:17.979Z,150.63
2023-02-08T00:15:46.561Z,157.30
2023-02-08T00:18:14.596Z,154.27
2023-02-08T00:20:43.068Z,141.32
2023-02-08T00:23:11.101Z,136.40
2023-02-08T00:25:39.013Z,138.68
2023-02-08T00:28:09.175Z,148.07
2023-02-08T00:30:37.336Z,153.98
2023-02-08T00:33:05.264Z,148.55
2023-02-08T00:35:32.977Z,149.90
2023-02-08T00:38:00.811Z,150.50
2023-02-08T00:40:28.741Z,154.52
2023-02-08T00:42:58.078Z,145.88
2023-02-08T00:45:25.896Z,138.38
2023-02-08T00:47:53.646Z,148.02
2023-02-08T00:50:21.992Z,152.02
2023-02-08T00:52:50.040Z,138.52
2023-02-08T00:55:17.875Z,153.13
2023-02-08T00:57:45.703Z,155.00
2023-02-08T01:00:14.078Z,143.82
2023-02-08T01:02:41.882Z,150.35
2023-02-08T01:05:09.738Z,158.77
2023-02-08T01:07:38.302Z,154.18
2023-02-08T01:10:07.319Z,137.10
2023-02-08T01:12:35.563Z,139.43
2023-02-08T01:15:03.550Z,154.40
2023-02-08T01:17:31.524Z,133.13
2023-02-08T01:19:59.288Z,138.60
2023-02-08T01:22:29.022Z,147.68
2023-02-08T01:24:56.888Z,149.35
2023-02-08T01:27:24.752Z,148.52
2023-02-08T01:29:53.232Z,150.27
2023-02-08T01:32:21.210Z,149.50
2023-02-08T01:34:49.010Z,132.27
2023-02-08T01:37:16.853Z,144.95
2023-02-08T01:39:44.670Z,144.13
2023-02-08T01:42:17.561Z,153.77
2023-02-08T01:45:16.277Z,162.75
2023-02-08T01:47:44.987Z,119.95
2023-02-08T01:50:14.044Z,156.40
2023-02-08T01:52:42.865Z,146.57
2023-02-08T01:55:16.637Z,153.90
2023-02-08T01:57:45.164Z,158.50
2023-02-08T02:00:22.664Z,150.65
2023-02-08T02:02:53.879Z,127.57
2023-02-08T02:05:22.823Z,145.30
2023-02-08T02:07:50.704Z,149.23
2023-02-08T02:10:29.824Z,150.20
2023-02-08T02:12:58.287Z,162.90
2023-02-08T02:15:26.334Z,141.90
2023-02-08T02:17:54.205Z,157.80
2023-02-08T02:20:31.116Z,166.35
2023-02-08T02:23:13.738Z,177.52
2023-02-08T02:26:08.317Z,155.07
2023-02-08T02:28:51.141Z,158.50
2023-02-08T02:34:18.144Z,155.30
2023-02-08T02:36:53.965Z,155.50
2023-02-08T02:39:28.482Z,171.80
2023-02-08T02:42:23.820Z,144.13
2023-02-08T02:45:08.106Z,179.63
2023-02-08T02:47:59.033Z,179.27
2023-02-08T02:50:46.930Z,167.20
2023-02-08T02:53:25.289Z,154.52
2023-02-08T02:56:02.735Z,175.00
2023-02-08T02:58:30.749Z,166.52
2023-02-08T03:00:59.572Z,160.18
2023-02-08T03:03:28.939Z,176.63
2023-02-08T03:05:59.781Z,170.52
2023-02-08T03:08:31.361Z,178.10
2023-02-08T03:11:19.097Z,163.40
2023-02-08T03:14:19.407Z,159.43
2023-02-08T03:17:40.882Z,165.82
2023-02-08T03:20:10.666Z,172.40
2023-02-08T03:23:09.120Z,169.07
2023-02-08T03:25:39.028Z,172.48
2023-02-08T03:28:20.748Z,172.23
2023-02-08T03:31:01.620Z,162.75
2023-02-08T03:33:41.152Z,164.50
2023-02-08T03:36:22.270Z,146.85
2023-02-08T03:38:50.284Z,162.55
2023-02-08T03:41:23.260Z,158.13
2023-02-08T03:44:06.419Z,160.25
2023-02-08T03:46:42.843Z,149.13
2023-02-08T03:49:22.595Z,162.63
2023-02-08T03:51:50.542Z,169.00
2023-02-08T03:54:23.293Z,168.40
2023-02-08T03:57:16.568Z,173.75
2023-02-08T03:59:47.603Z,163.95
2023-02-08T04:02:18.517Z,164.73
2023-02-08T04:04:47.693Z,164.40
2023-02-08T04:07:15.506Z,167.93
2023-02-08T04:09:43.408Z,172.18
2023-02-08T04:12:11.092Z,148.50
2023-02-08T04:14:38.823Z,155.18
2023-02-08T04:17:06.672Z,154.93
2023-02-08T04:19:34.512Z,145.27
2023-02-08T04:22:02.321Z,143.80
2023-02-08T04:24:30.145Z,133.70
2023-02-08T04:26:57.916Z,137.05
2023-02-08T04:29:25.760Z,133.68
2023-02-08T04:31:53.661Z,133.95
2023-02-08T04:34:21.548Z,114.15
2023-02-08T04:36:49.242Z,136.90
2023-02-08T04:39:16.987Z,120.97
2023-02-08T04:41:44.875Z,121.60
2023-02-08T04:44:12.536Z,123.55
2023-02-08T04:46:40.477Z,119.65
2023-02-08T04:49:08.310Z,112.93
2023-02-08T04:51:36.233Z,106.82
2023-02-08T04:54:04.082Z,109.00
2023-02-08T04:56:31.834Z,98.75
2023-02-08T04:58:59.875Z,107.35
2023-02-08T05:01:27.819Z,83.85
2023-02-08T05:03:55.658Z,98.53
2023-02-08T05:06:26.669Z,90.78
2023-02-08T05:08:54.488Z,88.05
2023-02-08T05:11:25.554Z,98.60
2023-02-08T05:13:53.500Z,99.90
2023-02-08T05:16:21.214Z,96.93
2023-02-08T05:18:49.011Z,96.38
2023-02-08T05:21:16.708Z,102.03
2023-02-08T05:23:46.438Z,90.88
2023-02-08T05:26:14.616Z,98.60
2023-02-08T05:28:42.510Z,95.30
2023-02-08T05:31:15.445Z,97.90
2023-02-08T05:33:43.469Z,99.13
2023-02-08T05:36:11.328Z,102.93
2023-02-08T05:38:39.136Z,102.57
2023-02-08T05:41:06.820Z,103.10
2023-02-08T05:43:34.540Z,104.15
2023-02-08T05:46:02.349Z,99.75
2023-02-08T05:48:31.578Z,97.57
2023-02-08T05:50:59.925Z,102.07
2023-02-08T05:53:27.982Z,97.10
2023-02-08T05:55:56.947Z,100.35
2023-02-08T05:58:24.817Z,97.53
2023-02-08T06:00:53.880Z,89.68
2023-02-08T06:03:21.774Z,98.28
2023-02-08T06:05:49.555Z,92.50
2023-02-08T06:08:17.369Z,98.25
2023-02-08T06:10:46.215Z,97.53
2023-02-08T06:13:14.042Z,93.82
2023-02-08T06:15:41.794Z,90.40
2023-02-08T06:18:09.638Z,94.43
2023-02-08T06:20:39.491Z,94.05
2023-02-08T06:23:07.576Z,94.53
2023-02-08T06:25:35.455Z,95.32
2023-02-08T06:28:03.640Z,96.10
2023-02-08T06:30:31.555Z,92.10
2023-02-08T06:32:59.484Z,92.97
2023-02-08T06:35:27.433Z,87.30
2023-02-08T06:37:55.378Z,88.88
2023-02-08T06:40:23.303Z,85.85
2023-02-08T06:42:51.096Z,90.70
2023-02-08T06:45:19.173Z,88.82
2023-02-08T06:47:47.045Z,90.22
2023-02-08T06:50:15.698Z,90.75
2023-02-08T06:52:43.535Z,87.55
2023-02-08T06:55:11.186Z,85.47
2023-02-08T06:57:38.969Z,86.97
2023-02-08T07:00:07.277Z,85.45
2023-02-08T07:02:35.068Z,82.57
2023-02-08T07:05:02.903Z,85.82
2023-02-08T07:07:30.841Z,80.55
2023-02-08T07:09:58.780Z,80.60
2023-02-08T07:12:26.415Z,83.75
2023-02-08T07:14:54.206Z,80.85
2023-02-08T07:17:22.262Z,84.43
2023-02-08T07:19:50.099Z,85.90
2023-02-08T07:22:17.808Z,84.00
2023-02-08T07:24:45.584Z,85.50
2023-02-08T07:27:13.532Z,82.43
2023-02-08T07:29:41.458Z,87.53
2023-02-08T07:32:09.461Z,83.47
2023-02-08T07:34:38.083Z,85.20
2023-02-08T07:37:05.733Z,84.75
2023-02-08T07:39:33.533Z,83.20
2023-02-08T07:42:01.348Z,90.03
2023-02-08T07:44:35.195Z,87.78
2023-02-08T07:47:02.921Z,91.63
2023-02-08T07:49:31.118Z,93.10
2023-02-08T07:52:02.183Z,86.57
2023-02-08T07:54:30.060Z,87.78
2023-02-08T07:56:57.926Z,83.68
2023-02-08T07:59:25.836Z,82.10
2023-02-08T08:01:53.845Z,85.90
2023-02-08T08:04:22.380Z,85.25
2023-02-08T08:06:51.953Z,88.60
2023-02-08T08:09:20.734Z,86.95
2023-02-08T08:11:48.554Z,88.10
2023-02-08T08:14:16.313Z,93.65
2023-02-08T08:16:44.322Z,83.95
2023-02-08T08:19:12.197Z,89.05
2023-02-08T08:21:40.058Z,91.38
2023-02-08T08:24:07.891Z,90.20
2023-02-08T08:26:35.793Z,92.53
2023-02-08T08:29:03.584Z,89.00
2023-02-08T08:31:31.626Z,89.20
2023-02-08T08:33:59.460Z,87.10
2023-02-08T08:36:27.217Z,91.10
2023-02-08T08:38:54.958Z,89.47
2023-02-08T08:41:23.585Z,88.22
2023-02-08T08:43:51.322Z,85.80
2023-02-08T08:46:19.399Z,87.82
2023-02-08T08:48:47.226Z,87.50
2023-02-08T08:51:15.101Z,88.75
2023-02-08T08:53:42.999Z,97.18
2023-02-08T08:56:10.815Z,90.45
2023-02-08T08:58:38.642Z,95.05
2023-02-08T09:01:06.534Z,93.22
2023-02-08T09:03:34.367Z,94.57
2023-02-08T09:06:02.143Z,94.03
2023-02-08T09:08:30.016Z,93.25
2023-02-08T09:10:57.773Z,91.43
2023-02-08T09:13:25.593Z,87.63
2023-02-08T09:15:53.427Z,88.88
2023-02-08T09:18:21.312Z,86.95
2023-02-08T09:20:49.061Z,90.03
2023-02-08T09:23:16.888Z,85.88
2023-02-08T09:25:44.742Z,88.50
2023-02-08T09:28:12.629Z,84.57
2023-02-08T09:30:40.609Z,87.82
2023-02-08T09:33:08.473Z,87.28
2023-02-08T09:35:36.249Z,87.75
2023-02-08T09:38:05.783Z,87.63
2023-02-08T09:40:48.678Z,88.78
2023-02-08T09:43:16.437Z,89.30
2023-02-08T09:46:00.392Z,81.03
2023-02-08T09:48:34.606Z,68.28
2023-02-08T09:51:28.601Z,71.78
2023-02-08T09:54:09.977Z,79.10
2023-02-08T09:56:40.809Z,69.65
2023-02-08T09:59:17.552Z,70.20
2023-02-08T10:01:45.481Z,67.70
2023-02-08T10:04:33.492Z,60.60
2023-02-08T10:07:01.354Z,69.85
2023-02-08T10:09:29.213Z,66.43
2023-02-08T10:12:33.937Z,68.07
2023-02-08T10:15:29.284Z,57.67
2023-02-08T10:18:00.002Z,56.80
2023-02-08T10:20:38.232Z,60.70
2023-02-08T10:23:36.743Z,57.33
2023-02-08T10:26:29.330Z,62.17
2023-02-08T10:29:42.361Z,57.45
2023-02-08T10:32:20.960Z,58.70
2023-02-08T10:34:51.107Z,56.55
2023-02-08T10:37:20.709Z,59.63
2023-02-08T10:39:49.597Z,61.35
2023-02-08T10:42:19.491Z,58.67
2023-02-08T10:45:01.908Z,60.63
2023-02-08T10:47:56.410Z,62.20
2023-02-08T10:50:37.695Z,62.65
2023-02-08T10:53:05.687Z,61.28
2023-02-08T10:55:36.208Z,68.70
2023-02-08T10:58:05.867Z,69.40
2023-02-08T11:00:35.459Z,77.28
2023-02-08T11:03:12.000Z,68.65
2023-02-08T11:05:41.120Z,59.92
2023-02-08T11:08:18.211Z,65.28
2023-02-08T11:11:09.225Z,55.65
2023-02-08T11:13:37.695Z,54.50
2023-02-08T11:16:06.798Z,55.40
2023-02-08T11:18:42.422Z,56.33
2023-02-08T11:21:22.082Z,57.25
2023-02-08T11:23:51.821Z,52.55
2023-02-08T11:26:24.952Z,53.92
2023-02-08T11:29:04.165Z,57.25
2023-02-08T11:31:32.575Z,58.90
2023-02-08T11:34:05.127Z,53.83
2023-02-08T11:36:34.487Z,52.80
2023-02-08T11:39:04.736Z,54.90
2023-02-08T11:41:32.546Z,59.75
2023-02-08T11:44:05.096Z,58.92
2023-02-08T11:46:35.719Z,55.30
2023-02-08T11:49:04.047Z,55.60
2023-02-08T11:51:35.837Z,54.42
2023-02-08T11:54:04.247Z,51.90
2023-02-08T11:56:33.440Z,56.80
2023-02-08T11:59:08.137Z,52.60
2023-02-08T12:01:37.659Z,52.90
2023-02-08T12:04:10.397Z,53.13
2023-02-08T12:06:48.659Z,54.13
2023-02-08T12:09:50.029Z,51.67
2023-02-08T12:12:29.891Z,51.45
2023-02-08T12:15:22.206Z,51.70
2023-02-08T12:18:37.337Z,54.58
2023-02-08T12:21:14.537Z,49.30
2023-02-08T12:23:50.354Z,55.83
2023-02-08T12:26:24.569Z,58.50
2023-02-08T12:29:07.672Z,55.45
2023-02-08T12:31:50.505Z,58.63
2023-02-08T12:34:34.308Z,57.85
2023-02-08T12:37:32.842Z,61.28
2023-02-08T12:40:37.098Z,73.13
2023-02-08T12:43:27.424Z,81.13
2023-02-08T12:46:13.706Z,77.82
2023-02-08T12:48:52.956Z,77.15
2023-02-08T12:51:23.502Z,78.18
2023-02-08T12:53:54.777Z,89.47
2023-02-08T12:56:28.574Z,93.50
2023-02-08T12:59:11.928Z,87.18
2023-02-08T13:01:45.806Z,85.10
2023-02-08T13:04:14.472Z,94.45
2023-02-08T13:06:43.796Z,99.32
2023-02-08T13:09:35.409Z,98.07
2023-02-08T13:12:16.832Z,91.22
2023-02-08T13:15:28.380Z,85.10
2023-02-08T13:18:18.634Z,80.60
2023-02-08T13:20:52.066Z,85.30
2023-02-08T13:23:34.811Z,95.28
2023-02-08T13:26:08.677Z,116.13
2023-02-08T13:28:36.405Z,120.63
2023-02-08T13:31:09.035Z,115.85
2023-02-08T13:34:01.996Z,99.95
2023-02-08T13:36:34.974Z,92.85
2023-02-08T13:39:04.999Z,90.93
2023-02-08T13:41:33.132Z,90.15
2023-02-08T13:44:08.628Z,97.03
2023-02-08T13:46:49.466Z,93.70
2023-02-08T13:49:51.163Z,90.18
2023-02-08T13:52:46.941Z,89.13
2023-02-08T13:55:38.659Z,88.55
2023-02-08T13:58:27.590Z,87.50
2023-02-08T14:00:55.392Z,81.78
2023-02-08T14:03:29.930Z,86.40
2023-02-08T14:06:17.456Z,86.75
2023-02-08T14:08:54.563Z,90.00
2023-02-08T14:11:31.341Z,87.22
2023-02-08T14:14:05.545Z,87.32
2023-02-08T14:16:38.963Z,86.18
2023-02-08T14:19:34.082Z,86.93
2023-02-08T14:22:01.725Z,83.53
2023-02-08T14:24:36.617Z,84.78
2023-02-08T14:27:23.056Z,83.28
2023-02-08T14:30:03.890Z,77.72
2023-02-08T14:32:39.546Z,75.95
2023-02-08T14:35:16.481Z,82.35
2023-02-08T14:37:44.790Z,72.25
2023-02-08T14:40:24.634Z,68.93
2023-02-08T14:43:19.935Z,68.32
2023-02-08T14:45:49.058Z,73.13
2023-02-08T14:48:27.871Z,74.93
2023-02-08T14:51:10.936Z,74.78
2023-02-08T14:53:57.835Z,74.57
2023-02-08T14:56:29.138Z,80.47
2023-02-08T14:59:12.202Z,81.15
2023-02-08T15:02:19.021Z,74.13
2023-02-08T15:04:47.252Z,79.82
2023-02-08T15:07:46.055Z,79.78
2023-02-08T15:10:15.202Z,84.68
2023-02-08T15:12:46.183Z,84.22
2023-02-08T15:15:29.463Z,84.75
2023-02-08T15:17:57.259Z,88.25
2023-02-08T15:20:29.312Z,90.57
2023-02-08T15:23:05.079Z,94.03
2023-02-08T15:25:36.849Z,96.45
2023-02-08T15:28:19.245Z,98.18
2023-02-08T15:30:47.228Z,105.57
2023-02-08T15:33:16.967Z,87.55
2023-02-08T15:35:45.234Z,84.90
2023-02-08T15:38:17.619Z,88.05
2023-02-08T15:40:45.751Z,85.10
2023-02-08T15:43:14.004Z,87.18
2023-02-08T15:45:41.949Z,86.32
2023-02-08T15:48:10.932Z,89.95
2023-02-08T15:50:38.741Z,87.82
2023-02-08T15:53:07.288Z,83.28
2023-02-08T15:55:39.456Z,89.30
2023-02-08T15:58:30.609Z,90.28
2023-02-08T16:00:59.918Z,97.07
2023-02-08T16:03:30.145Z,98.85
2023-02-08T16:06:00.013Z,92.63
2023-02-08T16:08:30.577Z,96.18
2023-02-08T16:11:12.902Z,97.00
2023-02-08T16:13:42.102Z,89.80
2023-02-08T16:16:19.893Z,90.47
2023-02-08T16:18:50.603Z,95.18
2023-02-08T16:21:42.843Z,97.55
2023-02-08T16:24:14.224Z,94.03
2023-02-08T16:26:59.883Z,95.88
2023-02-08T16:29:36.229Z,95.65
2023-02-08T16:32:27.763Z,95.07
2023-02-08T16:34:57.654Z,99.20
2023-02-08T16:37:29.305Z,101.85
2023-02-08T16:39:58.918Z,103.50
2023-02-08T16:42:40.118Z,105.57
2023-02-08T16:45:16.207Z,102.20
2023-02-08T16:47:54.105Z,102.25
2023-02-08T16:50:26.818Z,110.97
2023-02-08T16:53:04.338Z,114.50
2023-02-08T16:55:33.003Z,116.75
2023-02-08T16:58:00.857Z,120.75
2023-02-08T17:00:33.848Z,126.65
2023-02-08T17:03:01.783Z,115.25
2023-02-08T17:05:31.256Z,126.75
2023-02-08T17:07:59.259Z,126.03
2023-02-08T17:10:30.677Z,118.25
2023-02-08T17:13:17.402Z,115.57
2023-02-08T17:15:48.066Z,116.50
2023-02-08T17:18:17.258Z,112.38
2023-02-08T17:20:45.182Z,111.95
2023-02-08T17:23:13.866Z,106.07
2023-02-08T17:25:42.061Z,119.57
2023-02-08T17:28:15.186Z,123.00
2023-02-08T17:30:45.462Z,125.72
2023-02-08T17:33:18.748Z,122.82
2023-02-08T17:35:48.532Z,122.60
2023-02-08T17:38:16.553Z,121.00
2023-02-08T17:40:44.554Z,123.20
2023-02-08T17:43:12.699Z,124.20
2023-02-08T17:45:41.271Z,114.55
2023-02-08T17:48:09.455Z,109.95
2023-02-08T17:50:37.404Z,111.68
2023-02-08T17:53:05.284Z,115.38
2023-02-08T17:55:33.137Z,119.88
2023-02-08T17:58:00.901Z,123.40
2023-02-08T18:00:28.710Z,117.45
2023-02-08T18:02:57.940Z,121.72
2023-02-08T18:05:27.796Z,117.13
2023-02-08T18:07:58.349Z,130.32
2023-02-08T18:10:26.844Z,126.60
2023-02-08T18:12:54.599Z,125.28
2023-02-08T18:15:22.636Z,132.20
2023-02-08T18:17:54.174Z,134.18
2023-02-08T18:20:22.318Z,141.20
2023-02-08T18:22:50.084Z,134.75
2023-02-08T18:25:18.128Z,138.38
2023-02-08T18:27:45.831Z,140.05
2023-02-08T18:30:14.018Z,135.38
2023-02-08T18:32:41.815Z,141.57
2023-02-08T18:35:09.675Z,141.25
2023-02-08T18:37:37.996Z,149.00
2023-02-08T18:40:07.231Z,139.65
2023-02-08T18:42:40.890Z,139.82
2023-02-08T18:45:09.451Z,136.07
2023-02-08T18:47:37.693Z,140.50
2023-02-08T18:50:06.307Z,134.85
2023-02-08T18:52:34.065Z,134.55
2023-02-08T18:55:01.670Z,132.65
2023-02-08T18:57:29.544Z,132.93
2023-02-08T18:59:57.435Z,131.93
2023-02-08T19:02:27.578Z,131.07
2023-02-08T19:04:55.610Z,131.57
2023-02-08T19:07:23.533Z,127.85
2023-02-08T19:09:51.321Z,131.05
2023-02-08T19:12:19.378Z,128.27
2023-02-08T19:14:49.902Z,125.03
2023-02-08T19:17:17.694Z,128.43
2023-02-08T19:19:45.735Z,127.22
2023-02-08T19:22:13.489Z,136.70
2023-02-08T19:24:41.332Z,127.28
2023-02-08T19:27:09.110Z,129.48
2023-02-08T19:29:37.021Z,124.93
2023-02-08T19:32:05.276Z,128.60
2023-02-08T19:34:33.256Z,124.88
2023-02-08T19:37:01.240Z,133.40
2023-02-08T19:39:29.027Z,130.48
2023-02-08T19:41:59.171Z,137.73
2023-02-08T19:44:30.179Z,130.73
2023-02-08T19:46:58.291Z,125.18
2023-02-08T19:49:26.446Z,133.15
2023-02-08T19:51:54.519Z,130.73
2023-02-08T19:54:22.359Z,118.75
2023-02-08T19:56:55.020Z,106.82
2023-02-08T20:01:54.681Z,105.07
2023-02-08T20:04:22.654Z,98.35
2023-02-08T20:06:53.703Z,121.05
2023-02-08T20:09:21.673Z,126.93
2023-02-08T20:11:56.748Z,127.95
2023-02-08T20:14:25.557Z,126.22
2023-02-08T20:16:53.497Z,126.72
2023-02-08T20:19:21.526Z,129.63
2023-02-08T20:21:49.322Z,131.05
2023-02-08T20:24:17.192Z,126.05
2023-02-08T20:26:45.983Z,123.72
2023-02-08T20:29:13.988Z,127.03
2023-02-08T20:31:43.165Z,124.20
2023-02-08T20:34:13.073Z,127.70
2023-02-08T20:36:49.626Z,135.23
2023-02-08T20:39:22.419Z,125.03
2023-02-08T20:41:50.321Z,128.40
2023-02-08T20:44:18.545Z,127.32
2023-02-08T20:46:46.994Z,129.05
2023-02-08T20:49:17.960Z,128.05
2023-02-08T20:51:45.618Z,129.13
2023-02-08T20:54:13.359Z,129.00
2023-02-08T20:56:41.308Z,133.13
2023-02-08T20:59:09.758Z,131.95
2023-02-08T21:01:37.614Z,133.80
2023-02-08T21:04:05.562Z,127.88
2023-02-08T21:06:34.933Z,131.02
2023-02-08T21:09:10.728Z,128.38
2023-02-08T21:11:38.654Z,141.20
2023-02-08T21:14:06.687Z,132.05
2023-02-08T21:16:34.574Z,134.68
2023-02-08T21:19:02.396Z,128.40
2023-02-08T21:21:30.321Z,127.82
2023-02-08T21:23:58.272Z,131.80
2023-02-08T21:26:26.465Z,134.43
2023-02-08T21:28:55.349Z,133.00
2023-02-08T21:31:23.794Z,130.48
2023-02-08T21:33:51.857Z,131.93
2023-02-08T21:36:22.041Z,133.50
2023-02-08T21:38:49.957Z,135.88
2023-02-08T21:41:28.043Z,135.65
2023-02-08T21:43:57.413Z,132.55
2023-02-08T21:46:25.330Z,125.53
2023-02-08T21:49:11.446Z,122.43
2023-02-08T21:51:57.916Z,121.80
2023-02-08T21:54:42.195Z,129.23
2023-02-08T21:57:15.855Z,130.77
2023-02-08T21:59:43.904Z,128.75
2023-02-08T22:02:17.319Z,136.70
2023-02-08T22:05:03.383Z,136.45
2023-02-08T22:07:42.085Z,135.95
2023-02-08T22:10:11.279Z,136.82
2023-02-08T22:12:41.424Z,137.43
2023-02-08T22:15:13.643Z,137.82
2023-02-08T22:17:41.637Z,136.73
2023-02-08T22:20:09.971Z,141.77
2023-02-08T22:22:37.907Z,136.93
2023-02-08T22:25:05.959Z,135.95
2023-02-08T22:27:34.899Z,131.13
2023-02-08T22:30:02.662Z,131.15
2023-02-08T22:32:30.544Z,137.10
2023-02-08T22:34:58.382Z,133.45
2023-02-08T22:37:26.222Z,130.43
2023-02-08T22:39:53.990Z,133.73
2023-02-08T22:42:21.776Z,132.60
2023-02-08T22:44:49.553Z,133.25
2023-02-08T22:47:17.357Z,130.15
2023-02-08T22:49:45.113Z,130.35
2023-02-08T22:52:12.923Z,129.65
2023-02-08T22:54:42.153Z,128.95
2023-02-08T22:57:10.353Z,122.90
2023-02-08T22:59:39.035Z,126.35
2023-02-08T23:02:06.782Z,126.80
2023-02-08T23:04:34.549Z,123.47
2023-02-08T23:07:02.382Z,123.32
2023-02-08T23:09:30.166Z,124.40
2023-02-08T23:11:58.024Z,124.38
2023-02-08T23:14:26.440Z,120.25
2023-02-08T23:16:54.329Z,115.32
2023-02-08T23:19:22.270Z,115.28
2023-02-08T23:21:50.180Z,113.03
2023-02-08T23:24:17.991Z,117.57
2023-02-08T23:26:45.798Z,109.75
2023-02-08T23:29:13.562Z,115.60
2023-02-08T23:31:41.693Z,113.03
2023-02-08T23:34:11.724Z,116.50
2023-02-08T23:36:39.601Z,114.00
2023-02-08T23:39:08.120Z,109.80
2023-02-08T23:41:35.960Z,110.70
2023-02-08T23:44:03.790Z,108.07
2023-02-08T23:46:32.026Z,97.75
2023-02-08T23:48:59.966Z,79.45
2023-02-08T23:51:27.841Z,84.00
2023-02-08T23:53:55.829Z,82.47
2023-02-08T23:56:28.117Z,82.97
2023-02-08T23:58:57.866Z,82.82
